createdAt,value
2022-10-11T00:00:01.646Z,0
2022-10-11T00:05:01.739Z,0
2022-10-11T00:10:01.834Z,0
2022-10-11T00:15:01.624Z,0
2022-10-11T00:20:01.603Z,0
2022-10-11T00:25:01.675Z,0
2022-10-11T00:30:01.892Z,0
2022-10-11T00:35:01.623Z,0
2022-10-11T00:40:01.737Z,0
2022-10-11T00:45:01.634Z,0
2022-10-11T00:50:01.852Z,0
2022-10-11T00:55:01.657Z,0
2022-10-11T01:00:01.684Z,0
2022-10-11T01:05:25.597Z,0
2022-10-11T01:10:01.844Z,0
2022-10-11T01:15:01.668Z,0
2022-10-11T01:20:01.672Z,0
2022-10-11T01:25:01.757Z,0
2022-10-11T01:30:01.694Z,0
2022-10-11T01:35:01.935Z,0
2022-10-11T01:40:01.865Z,0
2022-10-11T01:45:01.706Z,0
2022-10-11T01:50:01.710Z,0
2022-10-11T01:55:09.420Z,0
2022-10-11T02:00:01.700Z,0
2022-10-11T02:05:01.699Z,0
2022-10-11T02:10:01.701Z,0
2022-10-11T02:15:01.835Z,0
2022-10-11T02:20:01.692Z,0
2022-10-11T02:25:01.715Z,0
2022-10-11T02:30:01.840Z,0
2022-10-11T02:35:01.911Z,0
2022-10-11T02:40:01.941Z,0
2022-10-11T02:45:01.782Z,0
2022-10-11T02:50:01.766Z,0
2022-10-11T02:55:01.767Z,0
2022-10-11T03:00:01.933Z,0
2022-10-11T03:05:01.845Z,0
2022-10-11T03:10:01.865Z,0
2022-10-11T03:15:01.747Z,0
2022-10-11T03:20:01.925Z,0
2022-10-11T03:25:04.233Z,0
2022-10-11T03:30:01.815Z,0
2022-10-11T03:35:01.783Z,0
2022-10-11T03:40:01.804Z,0
2022-10-11T03:45:02.017Z,0
2022-10-11T03:50:01.785Z,0
2022-10-11T03:55:01.793Z,0
2022-10-11T04:00:01.786Z,0
2022-10-11T04:05:01.978Z,0
2022-10-11T04:10:01.851Z,0
2022-10-11T04:15:01.815Z,0
2022-10-11T04:20:01.892Z,0
2022-10-11T04:25:01.944Z,0
2022-10-11T04:30:02.056Z,0
2022-10-11T04:35:01.903Z,0
2022-10-11T04:40:01.847Z,0
2022-10-11T04:45:02.231Z,0
2022-10-11T04:50:01.975Z,0
2022-10-11T04:55:01.878Z,0
2022-10-11T05:00:01.852Z,0
2022-10-11T05:05:01.831Z,0
2022-10-11T05:10:01.854Z,0
2022-10-11T05:15:02.010Z,0
2022-10-11T05:20:02.221Z,0
2022-10-11T05:25:02.014Z,0
2022-10-11T05:30:01.889Z,0
2022-10-11T05:35:01.923Z,0
2022-10-11T05:40:02.072Z,0
2022-10-11T05:45:01.898Z,0.3982116402116402
2022-10-11T05:50:01.915Z,0.4055767195767196
2022-10-11T05:55:01.915Z,0.5845925925925927
2022-10-11T06:00:02.057Z,0.777089947089947
2022-10-11T06:05:01.896Z,1.0833333333333335
2022-10-11T06:10:01.919Z,1.449703703703704
2022-10-11T06:15:01.905Z,1.8245502645502647
2022-10-11T06:20:01.943Z,2.286328042328042
2022-10-11T06:25:02.119Z,2.821142857142857
2022-10-11T06:30:01.940Z,5.514518518518518
2022-10-11T06:35:01.953Z,7.179206349206351
2022-10-11T06:40:01.923Z,8.750074074074075
2022-10-11T06:45:02.119Z,10.42
2022-10-11T06:50:02.153Z,12.093227513227513
2022-10-11T06:55:01.981Z,13.817132275132277
2022-10-11T07:00:01.985Z,15.98822222222222
2022-10-11T07:05:02.088Z,17.89377777777778
2022-10-11T07:10:02.120Z,19.558179894179894
2022-10-11T07:15:02.047Z,21.608846560846562
2022-10-11T07:20:02.059Z,23.480021164021164
2022-10-11T07:25:02.041Z,25.14166137566138
2022-10-11T07:30:02.167Z,25.540328042328042
2022-10-11T07:35:01.970Z,29.02106878306878
2022-10-11T07:40:01.993Z,30.292825396825396
2022-10-11T07:45:02.041Z,32.65047619047619
2022-10-11T07:50:02.195Z,35.17062433862434
2022-10-11T07:55:02.290Z,37.029121693121695
2022-10-11T08:00:02.111Z,37.23830687830688
2022-10-11T08:05:01.992Z,40.715492063492064
2022-10-11T08:10:02.063Z,42.00868783068783
2022-10-11T08:15:02.198Z,43.5651216931217
2022-10-11T08:20:02.031Z,44.91337566137567
2022-10-11T08:25:02.074Z,45.83524867724868
2022-10-11T08:30:02.092Z,47.886708994709
2022-10-11T08:35:02.117Z,49.237661375661375
2022-10-11T08:40:02.396Z,50.59714285714286
2022-10-11T08:45:11.325Z,52.36167195767195
2022-10-11T08:50:02.077Z,47.43511111111112
2022-10-11T08:55:02.107Z,55.094560846560846
2022-10-11T09:00:02.259Z,55.059671957671966
2022-10-11T09:05:02.135Z,53.114380952380955
2022-10-11T09:10:02.049Z,58.733121693121696
2022-10-11T09:15:02.075Z,59.48483597883598
2022-10-11T09:20:02.142Z,63.16883597883598
2022-10-11T09:25:02.295Z,56.903417989417996
2022-10-11T09:30:02.093Z,64.8707619047619
2022-10-11T09:35:02.293Z,59.1348783068783
2022-10-11T09:40:02.078Z,60.469894179894176
2022-10-11T09:45:02.272Z,40.89148148148148
2022-10-11T09:50:02.114Z,65.27828571428572
2022-10-11T09:55:02.178Z,54.59504761904762
2022-10-11T10:00:02.166Z,43.10857142857143
2022-10-11T10:05:02.231Z,20.381544973544973
2022-10-11T10:10:02.100Z,35.76473015873016
2022-10-11T10:15:02.123Z,74.01483597883598
2022-10-11T10:20:02.159Z,63.65966137566137
2022-10-11T10:25:02.169Z,30.370719576719573
2022-10-11T10:30:02.511Z,23.91493121693122
2022-10-11T10:35:02.126Z,34.521386243386246
2022-10-11T10:40:02.209Z,49.44297354497355
2022-10-11T10:45:02.210Z,56.81354497354497
2022-10-11T10:50:02.382Z,49.907185185185185
2022-10-11T10:55:02.158Z,58.1941798941799
2022-10-11T11:00:02.186Z,75.90408465608466
2022-10-11T11:05:02.179Z,71.8526455026455
2022-10-11T11:10:02.352Z,71.09946031746031
2022-10-11T11:15:02.270Z,72.93589417989418
2022-10-11T11:20:02.236Z,45.95820105820106
2022-10-11T11:25:02.216Z,68.49871957671958
2022-10-11T11:30:02.340Z,52.122645502645504
2022-10-11T11:35:02.378Z,30.8329417989418
2022-10-11T11:40:02.373Z,41.37991534391535
2022-10-11T11:45:02.197Z,68.73659259259259
2022-10-11T11:50:02.321Z,66.6677671957672
2022-10-11T11:55:04.084Z,74.1793015873016
2022-10-11T12:00:02.301Z,73.83221164021164
2022-10-11T12:05:02.179Z,74.6198835978836
2022-10-11T12:20:02.428Z,71.53331216931217
2022-10-11T12:25:02.308Z,71.1105925925926
2022-10-11T12:30:02.415Z,70.71092063492064
2022-10-11T12:35:02.232Z,69.52354497354499
2022-10-11T12:40:02.291Z,69.39448677248677
2022-10-11T12:45:02.244Z,69.52053968253968
2022-10-11T12:50:02.488Z,67.15514285714286
2022-10-11T12:55:02.265Z,61.06157671957673
2022-10-11T13:00:02.271Z,65.31325925925925
2022-10-11T13:05:02.330Z,27.87775661375661
2022-10-11T13:10:02.401Z,23.47138624338624
2022-10-11T13:15:02.342Z,20.12320634920635
2022-10-11T13:20:02.477Z,40.809492063492065
2022-10-11T13:25:02.279Z,18.052920634920635
2022-10-11T13:30:02.469Z,17.79647619047619
2022-10-11T13:35:02.276Z,9.97815873015873
2022-10-11T13:40:02.333Z,7.3339576719576725
2022-10-11T13:45:02.376Z,16.80784126984127
2022-10-11T13:50:02.748Z,47.47093121693121
2022-10-11T13:55:02.292Z,31.415343915343914
2022-10-11T14:00:02.296Z,37.45198941798942
2022-10-11T14:05:02.356Z,38.141089947089945
2022-10-11T14:10:02.513Z,31.994042328042326
2022-10-11T14:15:02.333Z,9.713206349206349
2022-10-11T14:20:06.147Z,8.977396825396825
2022-10-11T14:25:02.337Z,5.745333333333333
2022-10-11T14:30:25.961Z,2.761640211640212
2022-10-11T14:35:02.431Z,5.5827301587301585
2022-10-11T14:40:02.349Z,7.44536507936508
2022-10-11T14:45:02.360Z,4.160444444444445
2022-10-11T14:50:02.608Z,2.8010899470899475
2022-10-11T14:55:02.481Z,5.419005291005291
2022-10-11T15:00:02.470Z,4.535322751322752
2022-10-11T15:05:02.365Z,3.4277566137566136
2022-10-11T15:10:02.706Z,3.30768253968254
2022-10-11T15:15:02.370Z,2.421037037037037
2022-10-11T15:20:02.371Z,2.1942433862433863
2022-10-11T15:25:02.432Z,2.4884232804232806
2022-10-11T15:30:02.478Z,2.6516719576719576
2022-10-11T15:35:02.452Z,2.3320317460317463
2022-10-11T15:40:02.420Z,1.8623068783068784
2022-10-11T15:45:02.489Z,1.240021164021164
2022-10-11T15:50:02.472Z,0.45989417989417986
2022-10-11T15:55:02.562Z,0.362010582010582
2022-10-11T16:00:02.502Z,0.2628359788359788
2022-10-11T16:05:02.405Z,0.2775767195767196
2022-10-11T16:10:02.435Z,0
2022-10-11T16:15:02.633Z,0
2022-10-11T16:20:02.478Z,0
2022-10-11T16:25:02.467Z,0
2022-10-11T16:30:02.474Z,0
2022-10-11T16:35:02.511Z,0
2022-10-11T16:40:02.647Z,0
2022-10-11T16:45:02.490Z,0
2022-10-11T16:50:02.450Z,0
2022-10-11T16:55:02.579Z,0
2022-10-11T17:00:02.633Z,0
2022-10-11T17:05:02.499Z,0
2022-10-11T17:10:02.521Z,0
2022-10-11T17:15:02.469Z,0
2022-10-11T17:20:02.527Z,0
2022-10-11T17:25:02.703Z,0
2022-10-11T17:30:02.490Z,0
2022-10-11T17:35:02.515Z,0
2022-10-11T17:40:02.524Z,0
2022-10-11T17:45:02.709Z,0
2022-10-11T17:50:02.555Z,0
2022-10-11T17:55:02.529Z,0
2022-10-11T18:00:02.595Z,0
2022-10-11T18:05:02.695Z,0
2022-10-11T18:10:02.825Z,0
2022-10-11T18:15:02.586Z,0
2022-10-11T18:20:02.548Z,0
2022-10-11T18:25:02.669Z,0
2022-10-11T18:30:02.627Z,0
2022-10-11T18:35:02.547Z,0
2022-10-11T18:40:02.556Z,0
2022-10-11T18:45:02.621Z,0
2022-10-11T18:50:02.747Z,0
2022-10-11T18:55:02.541Z,0
2022-10-11T19:00:11.634Z,0
2022-10-11T19:05:02.657Z,0
2022-10-11T19:15:12.349Z,0
2022-10-11T19:20:00.462Z,0
2022-10-11T19:25:00.443Z,0
2022-10-11T19:30:00.553Z,0
2022-10-11T19:35:00.631Z,0
2022-10-11T19:40:00.485Z,0
2022-10-11T19:45:00.437Z,0
2022-10-11T19:50:00.468Z,0
2022-10-11T19:55:00.706Z,0
2022-10-11T20:00:00.644Z,0
2022-10-11T20:05:00.509Z,0
2022-10-11T20:10:00.575Z,0
2022-10-11T20:15:00.482Z,0
2022-10-11T20:20:00.537Z,0
2022-10-11T20:25:00.640Z,0
2022-10-11T20:30:00.513Z,0
2022-10-11T20:35:00.522Z,0
2022-10-11T20:40:00.549Z,0
2022-10-11T20:45:00.627Z,0
2022-10-11T20:50:00.616Z,0
2022-10-11T20:55:00.730Z,0
2022-10-11T21:00:00.812Z,0
2022-10-11T21:05:00.534Z,0
2022-10-11T21:10:00.536Z,0
2022-10-11T21:15:00.658Z,0
2022-10-11T21:20:00.719Z,0
2022-10-11T21:25:00.597Z,0
2022-10-11T21:30:00.528Z,0
2022-10-11T21:35:00.601Z,0
2022-10-11T21:40:00.642Z,0
2022-10-11T21:45:00.761Z,0
2022-10-11T21:50:00.544Z,0
2022-10-11T21:55:00.520Z,0
2022-10-11T22:00:00.543Z,0
2022-10-11T22:05:00.648Z,0
2022-10-11T22:10:00.743Z,0
2022-10-11T22:15:00.542Z,0
2022-10-11T22:20:00.563Z,0
2022-10-11T22:25:00.625Z,0
2022-10-11T22:30:00.658Z,0
2022-10-11T22:35:00.782Z,0
2022-10-11T22:40:00.658Z,0
2022-10-11T22:45:00.580Z,0
2022-10-11T22:50:00.619Z,0
2022-10-11T22:55:00.730Z,0
2022-10-11T23:00:00.792Z,0
2022-10-11T23:05:00.678Z,0
2022-10-11T23:10:00.634Z,0
2022-10-11T23:15:00.628Z,0
2022-10-11T23:20:00.729Z,0
2022-10-11T23:25:00.851Z,0
2022-10-11T23:30:00.700Z,0
2022-10-11T23:35:00.676Z,0
2022-10-11T23:40:00.720Z,0
2022-10-11T23:45:00.772Z,0
2022-10-11T23:50:00.842Z,0
2022-10-11T23:55:00.649Z,0
